Abbotsford International Airport

CYXX · Columbia Británica, Canadá

METAR pasados CYXX · Abbotsford Airport

A continuación puedes ver los METAR de los últimos días. Selecciona un año para ver los METAR más antiguos, desde el año 2007 en adelante.

21 de junio de 2024

Hora Código Tiempo Temp. Visibilidad Cielo nuboso Viento METAR/SPECI
09:00
V
21 °C 30 mi - 080° 080° 5 kt METAR CYXX 211600Z 08005KT 020V140 30SM SKC 21/11 A2996 RMK SLP147 DENSITY ALT 900FT
08:00
V
18 °C 30 mi - 360° 360° 0 kt METAR CYXX 211500Z 00000KT 30SM FEW240 18/11 A2997 RMK CI1 CI TR SLP149 DENSITY ALT 600FT
07:00
V
16 °C 30 mi - 360° 360° 0 kt METAR CYXX 211400Z 00000KT 30SM FEW220 16/12 A2997 RMK CI1 CI TR SLP149 DENSITY ALT 400FT
06:00
V
13 °C 30 mi - 360° 360° 0 kt METAR CYXX 211300Z 00000KT 30SM FEW220 13/10 A2996 RMK CI1 CI TR SLP147
05:00
V
13 °C 30 mi - 360° 360° 0 kt METAR CYXX 211200Z 00000KT 30SM FEW220 13/10 A2996 RMK CI1 CI TR SLP146
04:00
V
14 °C 30 mi - 010° 010° 2 kt METAR CYXX 211100Z 01002KT 30SM SKC 14/11 A2995 RMK SLP144
03:00
V
14 °C 15 mi - 340° 340° 3 kt METAR CYXX 211000Z 34003KT 15SM SKC 14/12 A2996 RMK SLP146
02:00
V
16 °C 15 mi - 320° 320° 3 kt METAR CYXX 210900Z 32003KT 15SM SKC 16/12 A2996 RMK SLP148
01:00
V
16 °C 15 mi - 360° 360° 3 kt METAR CYXX 210800Z 36003KT 15SM FEW080 16/12 A2996 RMK AC1 AC TR SLP147
00:00
V
17 °C 15 mi - 290° 290° 2 kt METAR CYXX 210700Z 29002KT 15SM SKC 17/12 A2996 RMK SLP147 DENSITY ALT 500FT

20 de junio de 2024

Hora Código Tiempo Temp. Visibilidad Cielo nuboso Viento METAR/SPECI
23:00
V
17 °C 15 mi - 190° 190° 2 kt METAR CYXX 210600Z 19002KT 15SM FEW080 17/12 A2996 RMK AC1 AC TR SLP146 DENSITY ALT 500FT
22:00
V
19 °C 15 mi - 140° 140° 3 kt METAR CYXX 210500Z 14003KT 110V190 15SM FEW090 19/11 A2995 RMK AC1 AC TR SLP144 DENSITY ALT 700FT
21:00
V
21 °C 30 mi - 220° 220° 6 kt METAR CYXX 210400Z 22006KT 30SM FEW100 FEW150 21/12 A2994 RMK CU1AC1 CU TR AC TR SLP140 DENSITY ALT 900FT
20:00
V
24 °C 30 mi - 220° 220° 7 kt METAR CYXX 210300Z 22007KT 30SM FEW100 FEW150TCU 24/12 A2994 RMK AC1TCU1 AC TR TCU TR SLP139 DENSITY ALT 1300FT
19:00
V
26 °C 30 mi - 220° 220° 9 kt METAR CYXX 210200Z 22009KT 30SM FEW100TCU FEW150 FEW220 26/12 A2994 RMK TCU1AC1CI1 AC TR CI TR TCU TR OVR MTS NE-SE SLP139 DENSITY ALT 1500FT
18:00
V
27 °C 30 mi - 250° 250° 8 kt METAR CYXX 210100Z 25008KT 230V290 30SM FEW100TCU FEW150 FEW200 27/11 A2994 RMK TCU1AC1CI1 AC TR CI TR TCU TR OVR MTS N-SE CB TOPS DIST E SLP142 DENSITY ALT 1700FT
17:00
V
27 °C 30 mi - 220° 220° 5 kt METAR CYXX 210000Z 22005KT 190V280 30SM FEW100CB FEW200 27/11 A2996 RMK CB1CI1 CI TR CB TR OVR MTS N-SE SH DIST SE SLP145 DENSITY ALT 1700FT
16:00
V
28 °C 30 mi - 250° 250° 8 kt METAR CYXX 202300Z 25008KT 220V290 30SM FEW110TCU 28/11 A2996 RMK TCU1 TCU TR OVR MTS NW-SE SLP148 DENSITY ALT 1700FT
15:00
V
27 °C 30 mi - 270° 270° 5 kt METAR CYXX 202200Z 27005KT 230V320 30SM FEW120TCU 27/11 A2997 RMK TCU1 TCU TR OVR MTS NW-SE SLP150 DENSITY ALT 1600FT
14:00
V
26 °C 30 mi - 220° 220° 3 kt METAR CYXX 202100Z 22003KT 170V290 30SM FEW110TCU 26/09 A2998 RMK TCU1 TCU TR OVR MTS NW-SE SLP156 DENSITY ALT 1500FT
13:00
V
25 °C 30 mi - 360° 360° 0 kt METAR CYXX 202000Z 00000KT 30SM FEW110TCU 25/10 A3001 RMK TCU1 TCU TR OVR MTS NW-SE SLP163 DENSITY ALT 1400FT
12:00
V
25 °C 30 mi - 090° 090° 2 kt METAR CYXX 201900Z 09002KT 30SM FEW100TCU 25/10 A3001 RMK TCU1 TCU TR OVR MTS NW-SE SLP166 DENSITY ALT 1300FT
11:00
V
23 °C 30 mi - Var Var 2 kt METAR CYXX 201800Z VRB02KT 30SM FEW100 23/10 A3002 RMK CU1 CU TR SLP169 DENSITY ALT 1100FT
10:00
V
22 °C 30 mi - 010° 010° 7 kt METAR CYXX 201700Z 01007KT 30SM FEW100 22/11 A3003 RMK CU1 CU TR SLP171 DENSITY ALT 1000FT
09:00
V
20 °C 30 mi - Var Var 2 kt METAR CYXX 201600Z VRB02KT 30SM FEW090 20/11 A3004 RMK CU1 CU TR SLP173 DENSITY ALT 700FT
08:00
V
18 °C 30 mi - 330° 330° 3 kt METAR CYXX 201500Z 33003KT 310V040 30SM FEW090 18/11 A3003 RMK ACC1 ACC TR SLP171 DENSITY ALT 500FT
07:00
V
15 °C 30 mi - 200° 200° 2 kt METAR CYXX 201400Z 20002KT 30SM FEW100 15/12 A3003 RMK AC1 AC TR SLP170
06:00
V
11 °C 30 mi - 220° 220° 2 kt METAR CYXX 201300Z 22002KT 30SM FEW100 11/09 A3001 RMK AC1 AC TR SLP165
05:00
V
12 °C 30 mi - 360° 360° 0 kt METAR CYXX 201200Z 00000KT 30SM FEW100 12/10 A3000 RMK AC1 SLP161
04:00
V
13 °C 15 mi - 360° 360° 0 kt METAR CYXX 201100Z 00000KT 15SM FEW045 13/11 A2999 RMK CU1 SLP158
03:00
V
13 °C 15 mi - 360° 360° 0 kt METAR CYXX 201000Z 00000KT 15SM SKC 13/10 A2998 RMK SLP156
02:00
V
13 °C 15 mi - 360° 360° 0 kt METAR CYXX 200900Z 00000KT 15SM SKC 13/11 A2998 RMK SLP156
01:00
V
14 °C 15 mi - 120° 120° 2 kt METAR CYXX 200800Z 12002KT 15SM SKC 14/11 A2998 RMK SLP156
00:00
V
15 °C 15 mi - 360° 360° 0 kt METAR CYXX 200700Z 00000KT 15SM SKC 15/11 A2999 RMK SLP157

19 de junio de 2024

Hora Código Tiempo Temp. Visibilidad Cielo nuboso Viento METAR/SPECI
23:00
V
15 °C 15 mi - 200° 200° 3 kt METAR CYXX 200600Z 20003KT 15SM SKC 15/11 A2998 RMK SLP155
22:00
V
16 °C 15 mi - 230° 230° 7 kt METAR CYXX 200500Z 23007KT 15SM FEW090TCU 16/11 A2997 RMK TCU1 TCU TR WIND EST SLP150
21:00
V
19 °C 30 mi - 220° 220° 7 kt METAR CYXX 200400Z 22007KT 30SM FEW090TCU FEW150 19/13 A2995 RMK TCU1AC1 AC TR TCU TR OVR MTS CB TOP DIST NE SLP144 DENSITY ALT 700FT
20:00
V
24 °C 30 mi - 270° 270° 5 kt METAR CYXX 200300Z 27005KT 30SM FEW090TCU FEW150 FEW200 24/10 A2994 RMK TCU1AC1CI1 TCU TR AC TR CI TR SLP141 DENSITY ALT 1200FT
19:00
V
25 °C 30 mi - 270° 270° 5 kt METAR CYXX 200200Z 27005KT 240V300 30SM FEW090TCU FEW150 FEW200 25/10 A2994 RMK TCU1AC1CI1 AC TR CI TR TCU TR OVR MTS CB TOP DIST NE SLP141 DENSITY ALT 1400FT
18:00
V
25 °C 30 mi - 270° 270° 4 kt METAR CYXX 200100Z 27004KT 220V340 30SM FEW090TCU FEW150 FEW200 25/10 A2995 RMK TCU1AC1CI1 AC TR CI TR TCU TR OVR MTS SLP145 DENSITY ALT 1400FT
17:00
V
25 °C 30 mi - 240° 240° 7 kt METAR CYXX 200000Z 24007KT 210V280 30SM FEW090CB FEW150 FEW200 25/10 A2996 RMK CB1AC1CI1 AC TR CB TR OVR MTS NE-SE SLP149 DENSITY ALT 1400FT
16:00
V
24 °C 30 mi - Var Var 6 kt METAR CYXX 192300Z VRB06KT 30SM FEW090CB FEW200 24/12 A2997 RMK CB1CI1 CI TR CB TR OVR MTS NE-SE SLP151 DENSITY ALT 1300FT
15:00
V
24 °C 30 mi - 360° 360° 0 kt METAR CYXX 192200Z 00000KT 30SM FEW090TCU FEW220 24/12 A2998 RMK TCU1CI1 CI TR TCU TR OVR MTS SLP155 DENSITY ALT 1300FT
14:00
V
23 °C 30 mi - 280° 280° 3 kt METAR CYXX 192100Z 28003KT 190V320 30SM FEW100TCU FEW220 23/11 A2999 RMK TCU1CI1 CI TR TCU TR OVR MTS SLP159 DENSITY ALT 1100FT
13:00
V
22 °C 30 mi - 270° 270° 5 kt METAR CYXX 192000Z 27005KT 200V320 30SM FEW100TCU FEW240 22/12 A3000 RMK TCU1CI1 CI TR TCU TR OVR MTS SLP162 DENSITY ALT 1000FT
12:00
V
21 °C 30 mi - Var Var 4 kt METAR CYXX 191900Z VRB04KT 30SM FEW100 FEW240 21/11 A3001 RMK CU1CI1 CU TR CI TR CONTRAILS SLP166 DENSITY ALT 900FT
11:00
V
20 °C 30 mi - 300° 300° 3 kt METAR CYXX 191800Z 30003KT 280V070 30SM FEW110 FEW220 FEW280 20/12 A3002 RMK CU1CC1CI1 CU TR CC TR CONTRAILS SLP169 DENSITY ALT 700FT
10:00
V
18 °C 30 mi - 010° 010° 6 kt METAR CYXX 191700Z 01006KT 350V080 30SM FEW110 FEW220 FEW280 18/11 A3003 RMK AC1CC1CI1 AC TR CC TR CONTRAILS SLP171 DENSITY ALT 600FT
09:00
V
17 °C 30 mi - Var Var 2 kt METAR CYXX 191600Z VRB02KT 30SM FEW220 17/12 A3004 RMK CC1 CC TR CONTRAILS SLP173
08:00
V
15 °C 30 mi - 020° 020° 3 kt METAR CYXX 191500Z 02003KT 360V060 30SM FEW220 15/11 A3003 RMK CC1 CC TR CONTRAILS SLP171
07:00
V
13 °C 30 mi - 030° 030° 6 kt METAR CYXX 191400Z 03006KT 30SM FEW100 13/11 A3003 RMK AC1 AC TR SLP171
06:00
V
10 °C 30 mi - 010° 010° 4 kt METAR CYXX 191300Z 01004KT 30SM FEW210 10/09 A3002 RMK CI2 SLP169
05:00
V
10 °C 30 mi - 030° 030° 2 kt METAR CYXX 191200Z 03002KT 30SM FEW100 FEW210 10/09 A3001 RMK AC1CI2 AC TR SLP166
04:00
V
10 °C 15 mi - 350° 350° 2 kt METAR CYXX 191100Z 35002KT 15SM FEW120 10/09 A3001 RMK AC2 SLP164
03:00
V
10 °C 15 mi - 340° 340° 3 kt METAR CYXX 191000Z 34003KT 15SM SKC 10/09 A3001 RMK SLP164
02:00
V
11 °C 15 mi - Var Var 2 kt METAR CYXX 190900Z VRB02KT 15SM SKC 11/09 A3001 RMK SLP165
01:00
V
11 °C 15 mi - 040° 040° 2 kt METAR CYXX 190800Z 04002KT 15SM SKC 11/09 A3001 RMK SLP166
00:00
V
13 °C 15 mi - 360° 360° 0 kt METAR CYXX 190700Z 00000KT 15SM FEW210 13/09 A3002 RMK CI2 SLP168

18 de junio de 2024

Hora Código Tiempo Temp. Visibilidad Cielo nuboso Viento METAR/SPECI
23:00
V
12 °C 15 mi - 200° 200° 4 kt METAR CYXX 190600Z 20004KT 15SM FEW210 12/09 A3002 RMK CI2 SLP167
Cambiar esta información